createdAt,value
2022-12-11T00:01:14.036Z,100195.81
2022-12-11T00:05:54.064Z,100186.38
2022-12-11T00:10:34.661Z,100190.13
2022-12-11T00:15:14.052Z,100189.97
2022-12-11T00:19:45.040Z,100188.81
2022-12-11T00:24:22.030Z,100191.50
2022-12-11T00:29:00.042Z,100191.34
2022-12-11T00:33:37.056Z,100198.28
2022-12-11T00:38:15.043Z,100198.28
2022-12-11T00:42:52.037Z,100192.56
2022-12-11T00:47:29.054Z,100197.63
2022-12-11T00:52:06.051Z,100193.09
2022-12-11T00:56:31.396Z,100187.41
2022-12-11T01:00:34.612Z,100174.09
2022-12-11T01:04:38.230Z,100182.03
2022-12-11T01:08:41.468Z,100184.41
2022-12-11T01:12:45.865Z,100182.09
2022-12-11T01:16:48.929Z,100184.94
2022-12-11T01:20:52.563Z,100189.78
2022-12-11T01:25:10.728Z,100190.63
2022-12-11T01:29:15.318Z,100192.31
2022-12-11T01:33:18.352Z,100195.00
2022-12-11T01:37:21.466Z,100194.69
2022-12-11T01:41:24.504Z,100200.06
2022-12-11T01:45:38.819Z,100195.25
2022-12-11T01:49:43.030Z,100184.47
2022-12-11T01:53:51.646Z,100181.63
2022-12-11T01:57:55.508Z,100189.06
2022-12-11T02:02:04.285Z,100183.69
2022-12-11T02:06:07.676Z,100183.69
2022-12-11T02:10:12.757Z,100179.00
2022-12-11T02:14:26.599Z,100178.69
2022-12-11T02:18:37.271Z,100184.69
2022-12-11T02:22:56.883Z,100175.78
2022-12-11T02:27:29.860Z,100172.09
2022-12-11T02:31:39.965Z,100175.94
2022-12-11T02:35:45.766Z,100170.41
2022-12-11T02:39:51.770Z,100166.03
2022-12-11T02:43:57.730Z,100168.47
2022-12-11T02:48:05.837Z,100160.34
2022-12-11T02:52:11.916Z,100157.97
2022-12-11T02:56:20.145Z,100144.81
2022-12-11T03:00:23.541Z,100146.69
2022-12-11T03:04:28.117Z,100150.91
2022-12-11T03:08:31.213Z,100139.63
2022-12-11T03:12:37.815Z,100138.75
2022-12-11T03:16:44.032Z,100137.41
2022-12-11T03:20:55.690Z,100139.09
2022-12-11T03:25:03.717Z,100137.72
2022-12-11T03:29:16.324Z,100135.50
2022-12-11T03:33:24.978Z,100134.97
2022-12-11T03:37:32.470Z,100133.41
2022-12-11T03:41:38.566Z,100146.09
2022-12-11T03:45:43.227Z,100142.03
2022-12-11T03:49:49.095Z,100141.88
2022-12-11T03:53:54.486Z,100141.03
2022-12-11T03:57:57.695Z,100142.72
2022-12-11T04:02:01.175Z,100140.72
2022-12-11T04:06:04.550Z,100138.56
2022-12-11T04:10:09.302Z,100130.34
2022-12-11T04:14:46.954Z,100132.34
2022-12-11T04:19:07.413Z,100119.72
2022-12-11T04:23:32.318Z,100120.41
2022-12-11T04:27:51.743Z,100127.31
2022-12-11T04:31:54.869Z,100116.22
2022-12-11T04:35:59.193Z,100117.72
2022-12-11T04:40:02.295Z,100119.22
2022-12-11T04:44:06.878Z,100110.53
2022-12-11T04:48:09.973Z,100107.84
2022-12-11T04:52:13.015Z,100110.16
2022-12-11T04:56:17.136Z,100118.94
2022-12-11T05:00:21.721Z,100105.16
2022-12-11T05:04:24.843Z,100107.84
2022-12-11T05:08:27.972Z,100096.78
2022-12-11T05:12:31.019Z,100089.41
2022-12-11T05:16:35.615Z,100098.47
2022-12-11T05:20:38.763Z,100092.47
2022-12-11T05:24:41.998Z,100087.41
2022-12-11T05:28:46.197Z,100094.16
2022-12-11T05:32:50.645Z,100092.47
2022-12-11T05:36:53.728Z,100085.06
2022-12-11T05:40:58.920Z,100077.69
2022-12-11T05:45:01.930Z,100072.31
2022-12-11T05:49:06.752Z,100080.38
2022-12-11T05:53:09.787Z,100082.75
2022-12-11T05:57:12.887Z,100081.94
2022-12-11T06:01:18.673Z,100082.63
2022-12-11T06:05:23.098Z,100078.22
2022-12-11T06:09:26.231Z,100080.75
2022-12-11T06:13:29.336Z,100074.53
2022-12-11T06:17:32.434Z,100071.00
2022-12-11T06:21:36.892Z,100075.38
2022-12-11T06:25:40.854Z,100058.41
2022-12-11T06:29:43.923Z,100059.41
2022-12-11T06:33:47.286Z,100058.72
2022-12-11T06:37:51.858Z,100054.69
2022-12-11T06:41:54.954Z,100060.41
2022-12-11T06:46:03.439Z,100070.00
2022-12-11T06:50:07.781Z,100064.78
2022-12-11T06:54:12.171Z,100062.91
2022-12-11T06:58:15.201Z,100063.56
2022-12-11T07:02:19.982Z,100068.09
2022-12-11T07:06:23.901Z,100062.34
2022-12-11T07:10:28.532Z,100068.19
2022-12-11T07:14:31.693Z,100079.81
2022-12-11T07:18:34.821Z,100086.03
2022-12-11T07:22:44.669Z,100079.81
2022-12-11T07:26:51.869Z,100080.31
2022-12-11T07:30:54.942Z,100078.97
2022-12-11T07:34:58.026Z,100088.47
2022-12-11T07:39:01.815Z,100084.25
2022-12-11T07:43:06.390Z,100077.88
2022-12-11T07:47:09.469Z,100073.50
2022-12-11T07:51:15.145Z,100072.31
2022-12-11T07:55:19.892Z,100071.19
2022-12-11T07:59:24.339Z,100083.63
2022-12-11T08:03:27.415Z,100075.88
2022-12-11T08:07:30.475Z,100082.56
2022-12-11T08:11:34.108Z,100074.81
2022-12-11T08:15:39.707Z,100081.69
2022-12-11T08:19:42.805Z,100083.94
2022-12-11T08:23:45.920Z,100080.25
2022-12-11T08:27:49.056Z,100090.34
2022-12-11T08:31:53.700Z,100082.88
2022-12-11T08:35:56.830Z,100087.63
2022-12-11T08:39:59.903Z,100084.56
2022-12-11T08:44:04.665Z,100074.44
2022-12-11T08:48:10.359Z,100081.94
2022-12-11T08:52:13.469Z,100081.19
2022-12-11T08:56:19.115Z,100091.19
2022-12-11T09:00:22.713Z,100080.06
2022-12-11T09:04:27.319Z,100089.81
2022-12-11T09:08:30.649Z,100090.34
2022-12-11T09:12:34.483Z,100099.41
2022-12-11T09:16:40.677Z,100092.13
2022-12-11T09:20:45.396Z,100088.94
2022-12-11T09:24:48.585Z,100085.13
2022-12-11T09:28:53.618Z,100082.13
2022-12-11T09:32:57.501Z,100074.75
2022-12-11T09:37:02.884Z,100072.94
2022-12-11T09:41:30.873Z,100074.50
2022-12-11T09:45:35.152Z,100074.56
2022-12-11T09:49:42.844Z,100078.75
2022-12-11T09:53:47.633Z,100076.91
2022-12-11T09:57:59.166Z,100077.28
2022-12-11T10:02:15.924Z,100078.88
2022-12-11T10:06:26.170Z,100084.50
2022-12-11T10:10:39.563Z,100073.75
2022-12-11T10:14:56.452Z,100071.38
2022-12-11T10:18:59.796Z,100064.50
2022-12-11T10:23:05.779Z,100074.38
2022-12-11T10:27:19.411Z,100059.00
2022-12-11T10:31:33.066Z,100060.41
2022-12-11T10:35:39.596Z,100070.75
2022-12-11T10:39:43.081Z,100058.41
2022-12-11T10:43:49.039Z,100060.94
2022-12-11T10:48:02.709Z,100058.06
2022-12-11T10:52:12.194Z,100041.53
2022-12-11T10:56:15.429Z,100047.00
2022-12-11T11:00:37.144Z,100038.56
2022-12-11T11:04:44.872Z,100027.72
2022-12-11T11:08:50.122Z,100027.25
2022-12-11T11:13:00.942Z,100016.38
2022-12-11T11:17:05.434Z,100012.47
2022-12-11T11:21:17.005Z,100014.88
2022-12-11T11:25:22.098Z,100011.44
2022-12-11T11:29:31.976Z,100005.63
2022-12-11T11:33:38.920Z,99992.00
2022-12-11T11:37:45.919Z,99984.28
2022-12-11T11:41:57.234Z,99986.28
2022-12-11T11:46:05.738Z,99980.06
2022-12-11T11:50:20.225Z,99970.66
2022-12-11T11:54:34.361Z,99966.44
2022-12-11T11:58:41.862Z,99963.25
2022-12-11T12:02:47.157Z,99961.56
2022-12-11T12:07:08.873Z,99956.47
2022-12-11T12:11:21.756Z,99953.78
2022-12-11T12:15:36.611Z,99963.84
2022-12-11T12:19:47.947Z,99962.66
2022-12-11T12:24:05.786Z,99964.75
2022-12-11T12:28:37.364Z,99962.34
2022-12-11T12:32:48.747Z,99957.72
2022-12-11T12:37:05.230Z,99959.72
2022-12-11T12:41:19.693Z,99948.78
2022-12-11T12:45:28.807Z,99955.72
2022-12-11T12:49:37.988Z,99946.25
2022-12-11T12:53:45.307Z,99957.00
2022-12-11T12:57:52.798Z,99960.41
2022-12-11T13:01:58.696Z,99958.03
2022-12-11T13:06:05.731Z,99959.34
2022-12-11T13:10:24.339Z,99969.84
2022-12-11T13:14:32.568Z,99963.44
2022-12-11T13:18:37.618Z,99964.09
2022-12-11T13:22:50.919Z,99961.03
2022-12-11T13:26:54.690Z,99958.56
2022-12-11T13:31:01.787Z,99970.47
2022-12-11T13:35:07.526Z,99963.06
2022-12-11T13:39:19.449Z,99965.44
2022-12-11T13:43:27.148Z,99958.72
2022-12-11T13:47:32.638Z,99964.00
2022-12-11T13:51:37.686Z,99956.25
2022-12-11T13:55:40.800Z,99970.41
2022-12-11T13:59:48.172Z,99977.22
2022-12-11T14:03:56.829Z,99976.84
2022-12-11T14:08:05.964Z,99986.28
2022-12-11T14:12:21.006Z,99983.63
2022-12-11T14:16:27.428Z,99981.94
2022-12-11T14:20:34.354Z,99985.97
2022-12-11T14:24:37.434Z,99983.34
2022-12-11T14:28:43.848Z,99977.59
2022-12-11T14:32:47.266Z,99994.41
2022-12-11T14:36:52.324Z,99982.44
2022-12-11T14:41:00.271Z,99990.09
2022-12-11T14:45:13.789Z,99995.28
2022-12-11T14:49:23.105Z,99996.34
2022-12-11T14:53:33.325Z,99998.97
2022-12-11T14:57:37.305Z,99996.66
2022-12-11T15:01:40.561Z,99995.97
2022-12-11T15:05:51.446Z,100001.44
2022-12-11T15:09:55.919Z,99996.06
2022-12-11T15:14:01.745Z,99997.22
2022-12-11T15:18:14.600Z,99997.91
2022-12-11T15:22:19.211Z,99995.53
2022-12-11T15:26:34.867Z,99991.19
2022-12-11T15:30:38.185Z,99993.94
2022-12-11T15:34:45.535Z,99989.03
2022-12-11T15:38:48.655Z,100003.25
2022-12-11T15:42:54.930Z,100001.94
2022-12-11T15:46:58.025Z,99999.25
2022-12-11T15:51:01.132Z,100003.75
2022-12-11T15:55:04.749Z,100008.31
2022-12-11T15:59:11.511Z,100008.94
2022-12-11T16:03:16.355Z,100016.66
2022-12-11T16:07:22.299Z,100022.84
2022-12-11T16:11:25.436Z,100027.22
2022-12-11T16:15:30.789Z,100023.72
2022-12-11T16:19:34.051Z,100014.66
2022-12-11T16:23:37.284Z,100013.97
2022-12-11T16:27:40.514Z,100011.28
2022-12-11T16:31:46.319Z,100011.59
2022-12-11T16:35:49.379Z,100014.28
2022-12-11T16:39:52.475Z,100007.03
2022-12-11T16:43:55.874Z,100005.56
2022-12-11T16:48:03.235Z,100008.72
2022-12-11T16:52:06.462Z,100011.66
2022-12-11T16:56:10.790Z,100016.84
2022-12-11T17:00:15.460Z,100011.66
2022-12-11T17:04:19.979Z,100013.31
2022-12-11T17:08:23.503Z,100010.00
2022-12-11T17:12:28.040Z,100005.09
2022-12-11T17:16:31.951Z,100008.63
2022-12-11T17:20:36.504Z,99995.66
2022-12-11T17:24:39.588Z,100004.41
2022-12-11T17:28:42.696Z,100001.75
2022-12-11T17:32:49.129Z,99999.88
2022-12-11T17:36:55.223Z,100000.59
2022-12-11T17:40:58.406Z,99998.91
2022-12-11T17:45:02.261Z,99996.88
2022-12-11T17:49:06.563Z,99998.22
2022-12-11T17:53:13.005Z,99997.22
2022-12-11T17:57:16.165Z,99997.22
2022-12-11T18:01:19.752Z,99993.88
2022-12-11T18:05:23.035Z,99996.00
2022-12-11T18:09:27.573Z,99992.38
2022-12-11T18:13:30.715Z,99990.16
2022-12-11T18:17:34.474Z,100002.94
2022-12-11T18:21:42.808Z,100003.63
2022-12-11T18:25:47.366Z,99998.56
2022-12-11T18:29:50.831Z,100003.94
2022-12-11T18:33:53.966Z,100006.66
2022-12-11T18:37:57.286Z,100006.69
2022-12-11T18:42:31.214Z,100013.75
2022-12-11T18:46:25.104Z,100011.06
2022-12-11T18:50:28.328Z,100001.94
2022-12-11T18:54:33.980Z,100001.13
2022-12-11T18:58:39.030Z,99999.75
2022-12-11T19:02:42.141Z,100001.94
2022-12-11T19:06:45.737Z,99993.56
2022-12-11T19:10:48.956Z,100003.31
2022-12-11T19:14:53.678Z,99997.22
2022-12-11T19:18:57.178Z,99997.25
2022-12-11T19:23:00.276Z,100006.38
2022-12-11T19:27:07.340Z,100003.31
2022-12-11T19:31:17.306Z,100000.59
2022-12-11T19:35:20.429Z,99995.50
2022-12-11T19:39:23.612Z,99993.13
2022-12-11T19:43:26.717Z,99990.09
2022-12-11T19:47:31.215Z,100000.59
2022-12-11T19:51:38.568Z,99996.34
2022-12-11T19:55:42.507Z,99999.03
2022-12-11T19:59:45.725Z,100003.41
2022-12-11T20:03:50.138Z,99997.84
2022-12-11T20:07:53.415Z,99998.72
2022-12-11T20:11:56.568Z,100002.09
2022-12-11T20:15:59.710Z,100001.34
2022-12-11T20:20:04.520Z,100008.53
2022-12-11T20:24:08.154Z,100010.22
2022-12-11T20:28:11.578Z,100001.47
2022-12-11T20:32:15.311Z,100010.34
2022-12-11T20:36:21.908Z,100009.91
2022-12-11T20:40:25.411Z,100008.22
2022-12-11T20:44:28.526Z,100006.09
2022-12-11T20:48:31.969Z,100007.09
2022-12-11T20:52:36.988Z,99997.16
2022-12-11T20:56:40.111Z,99996.81
2022-12-11T21:00:43.938Z,100000.66
2022-12-11T21:04:47.146Z,99993.13
2022-12-11T21:08:51.631Z,100004.59
2022-12-11T21:12:54.750Z,100000.56
2022-12-11T21:16:57.985Z,100004.09
2022-12-11T21:21:01.101Z,100009.78
2022-12-11T21:25:06.481Z,100021.75
2022-12-11T21:29:09.965Z,100021.28
2022-12-11T21:33:13.120Z,100019.97
2022-12-11T21:37:16.263Z,100025.34
2022-12-11T21:41:23.489Z,100025.72
2022-12-11T21:45:59.350Z,100018.97
2022-12-11T21:49:49.923Z,100025.03
2022-12-11T21:53:54.780Z,100021.09
2022-12-11T21:57:59.250Z,100019.91
2022-12-11T22:02:02.403Z,100027.47
2022-12-11T22:06:06.011Z,100033.19
2022-12-11T22:10:10.143Z,100028.16
2022-12-11T22:14:15.757Z,100032.84
2022-12-11T22:18:18.956Z,100035.78
2022-12-11T22:22:22.074Z,100032.22
2022-12-11T22:26:28.082Z,100037.22
2022-12-11T22:30:32.986Z,100041.28
2022-12-11T22:34:36.298Z,100037.22
2022-12-11T22:38:39.958Z,100045.00
2022-12-11T22:42:44.193Z,100041.16
2022-12-11T22:46:50.444Z,100051.22
2022-12-11T22:50:54.336Z,100038.25
2022-12-11T22:54:58.102Z,100049.31
2022-12-11T22:59:01.167Z,100040.72
2022-12-11T23:03:05.774Z,100036.66
2022-12-11T23:07:09.090Z,100042.91
2022-12-11T23:11:13.582Z,100045.31
2022-12-11T23:15:19.266Z,100045.84
2022-12-11T23:19:25.665Z,100038.78
2022-12-11T23:23:29.485Z,100047.00
2022-12-11T23:27:32.686Z,100039.41
2022-12-11T23:31:36.033Z,100048.25
2022-12-11T23:35:40.464Z,100044.47
2022-12-11T23:39:43.538Z,100045.84
2022-12-11T23:43:46.676Z,100054.22
2022-12-11T23:47:49.898Z,100054.00
2022-12-11T23:51:54.368Z,100051.22
2022-12-11T23:55:57.763Z,100050.06
